sensor_id;sensor_type;location;lat;lon;timestamp;pressure;altitude;pressure_sealevel;temperature;humidity
26487;BME280;14425;56.136;40.360;2023-02-16T00:00:27;100328.13;;;-0.46;69.39
26487;BME280;14425;56.136;40.360;2023-02-16T00:02:53;100334.53;;;-0.50;68.77
26487;BME280;14425;56.136;40.360;2023-02-16T00:05:27;100326.94;;;-0.31;67.63
26487;BME280;14425;56.136;40.360;2023-02-16T00:07:54;100336.41;;;-0.39;66.59
26487;BME280;14425;56.136;40.360;2023-02-16T00:10:21;100327.69;;;-0.32;69.50
26487;BME280;14425;56.136;40.360;2023-02-16T00:12:46;100335.25;;;-0.61;66.41
26487;BME280;14425;56.136;40.360;2023-02-16T00:15:30;100339.19;;;-1.01;70.09
26487;BME280;14425;56.136;40.360;2023-02-16T00:17:58;100332.28;;;-0.66;70.79
26487;BME280;14425;56.136;40.360;2023-02-16T00:20:25;100344.88;;;-0.57;69.59
26487;BME280;14425;56.136;40.360;2023-02-16T00:22:50;100327.97;;;-0.48;68.09
26487;BME280;14425;56.136;40.360;2023-02-16T00:25:16;100344.56;;;-0.51;69.28
26487;BME280;14425;56.136;40.360;2023-02-16T00:27:42;100336.47;;;-0.94;68.70
26487;BME280;14425;56.136;40.360;2023-02-16T00:30:19;100343.69;;;-1.07;71.23
26487;BME280;14425;56.136;40.360;2023-02-16T00:32:45;100347.34;;;-0.67;70.56
26487;BME280;14425;56.136;40.360;2023-02-16T00:35:19;100350.94;;;-0.46;70.01
26487;BME280;14425;56.136;40.360;2023-02-16T00:37:46;100350.31;;;-0.25;68.39
26487;BME280;14425;56.136;40.360;2023-02-16T00:40:13;100352.03;;;-0.34;67.99
26487;BME280;14425;56.136;40.360;2023-02-16T00:42:39;100353.25;;;-0.20;67.24
26487;BME280;14425;56.136;40.360;2023-02-16T00:45:11;100356.53;;;-0.40;65.78
26487;BME280;14425;56.136;40.360;2023-02-16T00:47:41;100342.47;;;-0.75;66.80
26487;BME280;14425;56.136;40.360;2023-02-16T00:50:15;100339.88;;;-0.94;69.57
26487;BME280;14425;56.136;40.360;2023-02-16T00:52:41;100343.34;;;-1.02;68.10
26487;BME280;14425;56.136;40.360;2023-02-16T00:55:13;100350.41;;;-1.53;69.62
26487;BME280;14425;56.136;40.360;2023-02-16T00:58:12;100355.56;;;-1.97;70.62
26487;BME280;14425;56.136;40.360;2023-02-16T01:00:34;100359.22;;;-2.72;74.52
26487;BME280;14425;56.136;40.360;2023-02-16T01:03:06;100356.25;;;-2.59;78.34
26487;BME280;14425;56.136;40.360;2023-02-16T01:05:32;100356.59;;;-2.38;76.76
26487;BME280;14425;56.136;40.360;2023-02-16T01:07:57;100355.16;;;-2.96;76.66
26487;BME280;14425;56.136;40.360;2023-02-16T01:10:42;100368.31;;;-3.41;80.66
26487;BME280;14425;56.136;40.360;2023-02-16T01:13:27;100375.81;;;-3.83;81.02
26487;BME280;14425;56.136;40.360;2023-02-16T01:15:54;100369.38;;;-3.39;78.19
26487;BME280;14425;56.136;40.360;2023-02-16T01:18:20;100365.56;;;-3.35;77.72
26487;BME280;14425;56.136;40.360;2023-02-16T01:20:46;100366.84;;;-3.39;78.12
26487;BME280;14425;56.136;40.360;2023-02-16T01:23:12;100361.72;;;-3.31;75.52
26487;BME280;14425;56.136;40.360;2023-02-16T01:25:38;100364.69;;;-2.76;74.45
26487;BME280;14425;56.136;40.360;2023-02-16T01:28:24;100370.53;;;-2.68;75.11
26487;BME280;14425;56.136;40.360;2023-02-16T01:30:51;100363.13;;;-3.09;73.00
26487;BME280;14425;56.136;40.360;2023-02-16T01:33:16;100373.88;;;-3.27;71.68
26487;BME280;14425;56.136;40.360;2023-02-16T01:35:42;100378.84;;;-3.45;72.73
26487;BME280;14425;56.136;40.360;2023-02-16T01:38:21;100361.81;;;-3.05;74.52
26487;BME280;14425;56.136;40.360;2023-02-16T01:44:24;100366.91;;;-2.79;70.06
26487;BME280;14425;56.136;40.360;2023-02-16T01:46:54;100372.16;;;-2.60;68.48
26487;BME280;14425;56.136;40.360;2023-02-16T01:49:21;100373.19;;;-2.67;69.03
26487;BME280;14425;56.136;40.360;2023-02-16T02:00:10;100377.22;;;-3.02;68.11
26487;BME280;14425;56.136;40.360;2023-02-16T02:02:48;100372.31;;;-2.58;68.89
26487;BME280;14425;56.136;40.360;2023-02-16T02:05:22;100374.72;;;-1.90;67.94
26487;BME280;14425;56.136;40.360;2023-02-16T02:13:34;100374.16;;;-1.34;64.00
26487;BME280;14425;56.136;40.360;2023-02-16T02:16:24;100371.78;;;-2.12;62.52
26487;BME280;14425;56.136;40.360;2023-02-16T02:18:50;100368.78;;;-2.43;64.48
26487;BME280;14425;56.136;40.360;2023-02-16T02:27:27;100375.00;;;-3.41;68.05
26487;BME280;14425;56.136;40.360;2023-02-16T02:36:14;100372.63;;;-1.94;65.82
26487;BME280;14425;56.136;40.360;2023-02-16T02:41:34;100381.16;;;-2.88;67.16
26487;BME280;14425;56.136;40.360;2023-02-16T02:44:21;100385.63;;;-3.19;68.04
26487;BME280;14425;56.136;40.360;2023-02-16T02:46:48;100385.09;;;-3.41;70.42
26487;BME280;14425;56.136;40.360;2023-02-16T02:49:15;100408.09;;;-4.03;72.10
26487;BME280;14425;56.136;40.360;2023-02-16T02:51:40;100402.47;;;-3.85;73.37
26487;BME280;14425;56.136;40.360;2023-02-16T02:54:11;100398.13;;;-3.70;73.57
26487;BME280;14425;56.136;40.360;2023-02-16T03:00:31;100396.25;;;-4.04;74.43
26487;BME280;14425;56.136;40.360;2023-02-16T03:03:32;100399.78;;;-4.43;75.90
26487;BME280;14425;56.136;40.360;2023-02-16T03:06:08;100402.84;;;-4.61;78.04
26487;BME280;14425;56.136;40.360;2023-02-16T03:08:36;100398.13;;;-4.42;80.42
26487;BME280;14425;56.136;40.360;2023-02-16T03:11:20;100404.31;;;-4.48;81.25
26487;BME280;14425;56.136;40.360;2023-02-16T03:14:09;100401.13;;;-4.54;79.20
26487;BME280;14425;56.136;40.360;2023-02-16T03:16:52;100404.97;;;-4.10;83.69
26487;BME280;14425;56.136;40.360;2023-02-16T03:19:39;100399.47;;;-3.90;77.73
26487;BME280;14425;56.136;40.360;2023-02-16T03:22:24;100406.47;;;-3.38;77.38
26487;BME280;14425;56.136;40.360;2023-02-16T03:25:08;100400.75;;;-3.53;72.91
26487;BME280;14425;56.136;40.360;2023-02-16T03:27:54;100395.34;;;-3.40;74.79
26487;BME280;14425;56.136;40.360;2023-02-16T03:30:41;100392.97;;;-4.03;74.30
26487;BME280;14425;56.136;40.360;2023-02-16T03:33:08;100406.34;;;-4.36;75.30
26487;BME280;14425;56.136;40.360;2023-02-16T03:35:34;100409.25;;;-4.40;77.09
26487;BME280;14425;56.136;40.360;2023-02-16T03:38:00;100407.31;;;-4.11;77.96
26487;BME280;14425;56.136;40.360;2023-02-16T03:40:27;100403.06;;;-4.03;76.59
26487;BME280;14425;56.136;40.360;2023-02-16T03:43:00;100408.22;;;-4.27;78.05
26487;BME280;14425;56.136;40.360;2023-02-16T03:45:26;100412.09;;;-4.05;79.54
26487;BME280;14425;56.136;40.360;2023-02-16T03:47:52;100407.72;;;-4.63;82.36
26487;BME280;14425;56.136;40.360;2023-02-16T03:50:18;100418.38;;;-5.35;85.62
26487;BME280;14425;56.136;40.360;2023-02-16T03:52:44;100409.06;;;-5.66;88.11
26487;BME280;14425;56.136;40.360;2023-02-16T03:55:09;100409.84;;;-5.44;90.00
26487;BME280;14425;56.136;40.360;2023-02-16T03:57:35;100400.06;;;-5.57;90.15
26487;BME280;14425;56.136;40.360;2023-02-16T04:00:00;100415.19;;;-5.64;88.63
26487;BME280;14425;56.136;40.360;2023-02-16T04:02:27;100407.03;;;-5.31;90.47
26487;BME280;14425;56.136;40.360;2023-02-16T04:04:52;100413.84;;;-5.53;87.69
26487;BME280;14425;56.136;40.360;2023-02-16T04:07:18;100413.25;;;-5.74;88.38
26487;BME280;14425;56.136;40.360;2023-02-16T04:09:43;100414.84;;;-5.67;90.55
26487;BME280;14425;56.136;40.360;2023-02-16T04:12:10;100405.38;;;-5.24;85.05
26487;BME280;14425;56.136;40.360;2023-02-16T04:14:55;100412.22;;;-5.30;86.44
26487;BME280;14425;56.136;40.360;2023-02-16T04:17:20;100407.88;;;-5.24;87.52
26487;BME280;14425;56.136;40.360;2023-02-16T04:19:46;100411.44;;;-5.45;85.53
26487;BME280;14425;56.136;40.360;2023-02-16T04:22:11;100408.84;;;-5.91;90.33
26487;BME280;14425;56.136;40.360;2023-02-16T04:24:36;100408.75;;;-6.00;90.01
26487;BME280;14425;56.136;40.360;2023-02-16T04:27:02;100410.19;;;-6.02;90.80
26487;BME280;14425;56.136;40.360;2023-02-16T04:29:28;100413.00;;;-5.38;90.63
26487;BME280;14425;56.136;40.360;2023-02-16T04:31:54;100408.22;;;-4.97;85.02
26487;BME280;14425;56.136;40.360;2023-02-16T04:34:20;100407.97;;;-5.38;87.74
26487;BME280;14425;56.136;40.360;2023-02-16T04:36:45;100402.97;;;-5.15;87.05
26487;BME280;14425;56.136;40.360;2023-02-16T04:39:11;100411.97;;;-5.17;85.28
26487;BME280;14425;56.136;40.360;2023-02-16T04:41:36;100408.94;;;-4.59;85.48
26487;BME280;14425;56.136;40.360;2023-02-16T04:44:02;100404.97;;;-4.10;77.32
26487;BME280;14425;56.136;40.360;2023-02-16T04:46:28;100405.34;;;-4.46;80.34
26487;BME280;14425;56.136;40.360;2023-02-16T04:48:55;100403.84;;;-3.80;77.63
26487;BME280;14425;56.136;40.360;2023-02-16T04:51:20;100399.25;;;-3.26;72.88
26487;BME280;14425;56.136;40.360;2023-02-16T04:53:46;100409.81;;;-3.71;75.83
26487;BME280;14425;56.136;40.360;2023-02-16T04:56:12;100402.28;;;-3.46;75.55
26487;BME280;14425;56.136;40.360;2023-02-16T04:58:38;100402.31;;;-3.37;71.99
26487;BME280;14425;56.136;40.360;2023-02-16T05:01:03;100399.50;;;-3.07;70.16
26487;BME280;14425;56.136;40.360;2023-02-16T05:03:29;100399.94;;;-3.02;69.05
26487;BME280;14425;56.136;40.360;2023-02-16T05:05:54;100392.31;;;-3.20;71.13
26487;BME280;14425;56.136;40.360;2023-02-16T05:08:20;100386.91;;;-2.30;70.65
26487;BME280;14425;56.136;40.360;2023-02-16T05:10:45;100397.63;;;-2.24;65.81
26487;BME280;14425;56.136;40.360;2023-02-16T05:13:33;100400.00;;;-2.16;67.90
26487;BME280;14425;56.136;40.360;2023-02-16T05:16:20;100406.75;;;-2.59;66.47
26487;BME280;14425;56.136;40.360;2023-02-16T05:18:48;100402.69;;;-2.32;68.45
26487;BME280;14425;56.136;40.360;2023-02-16T05:21:14;100405.00;;;-2.69;66.87
26487;BME280;14425;56.136;40.360;2023-02-16T05:23:55;100407.38;;;-2.62;67.18
26487;BME280;14425;56.136;40.360;2023-02-16T05:26:20;100410.47;;;-3.15;68.42
26487;BME280;14425;56.136;40.360;2023-02-16T05:28:46;100414.25;;;-3.77;70.66
26487;BME280;14425;56.136;40.360;2023-02-16T05:31:11;100410.94;;;-2.60;71.85
26487;BME280;14425;56.136;40.360;2023-02-16T05:33:37;100411.09;;;-2.49;70.27
26487;BME280;14425;56.136;40.360;2023-02-16T05:36:02;100411.59;;;-2.18;67.74
26487;BME280;14425;56.136;40.360;2023-02-16T05:38:28;100406.56;;;-1.92;66.53
26487;BME280;14425;56.136;40.360;2023-02-16T05:40:53;100406.72;;;-1.91;65.96
26487;BME280;14425;56.136;40.360;2023-02-16T05:43:19;100406.09;;;-1.79;64.40
26487;BME280;14425;56.136;40.360;2023-02-16T05:45:44;100420.28;;;-2.67;67.52
26487;BME280;14425;56.136;40.360;2023-02-16T05:48:10;100418.75;;;-3.16;69.11
26487;BME280;14425;56.136;40.360;2023-02-16T05:50:35;100408.56;;;-2.49;68.10
26487;BME280;14425;56.136;40.360;2023-02-16T05:53:01;100416.06;;;-2.84;68.11
26487;BME280;14425;56.136;40.360;2023-02-16T05:55:27;100429.06;;;-3.30;68.15
26487;BME280;14425;56.136;40.360;2023-02-16T05:57:53;100426.16;;;-3.92;72.61
26487;BME280;14425;56.136;40.360;2023-02-16T06:00:18;100428.69;;;-4.07;75.24
26487;BME280;14425;56.136;40.360;2023-02-16T06:02:44;100435.69;;;-3.64;73.33
26487;BME280;14425;56.136;40.360;2023-02-16T06:05:09;100428.44;;;-3.37;72.93
26487;BME280;14425;56.136;40.360;2023-02-16T06:07:35;100426.59;;;-3.46;75.18
26487;BME280;14425;56.136;40.360;2023-02-16T06:10:00;100429.88;;;-3.88;74.92
26487;BME280;14425;56.136;40.360;2023-02-16T06:12:26;100436.47;;;-4.29;75.81
26487;BME280;14425;56.136;40.360;2023-02-16T06:14:51;100438.53;;;-4.18;76.50
26487;BME280;14425;56.136;40.360;2023-02-16T06:17:17;100445.16;;;-3.46;75.76
26487;BME280;14425;56.136;40.360;2023-02-16T06:19:42;100437.22;;;-3.08;71.57
26487;BME280;14425;56.136;40.360;2023-02-16T06:22:08;100441.59;;;-3.23;73.61
26487;BME280;14425;56.136;40.360;2023-02-16T06:24:33;100445.47;;;-3.18;72.95
26487;BME280;14425;56.136;40.360;2023-02-16T06:26:59;100452.50;;;-3.31;69.40
26487;BME280;14425;56.136;40.360;2023-02-16T06:29:25;100436.88;;;-3.61;73.18
26487;BME280;14425;56.136;40.360;2023-02-16T06:31:50;100432.75;;;-3.02;70.37
26487;BME280;14425;56.136;40.360;2023-02-16T06:34:16;100432.31;;;-3.07;72.31
26487;BME280;14425;56.136;40.360;2023-02-16T06:36:41;100439.88;;;-3.07;71.65
26487;BME280;14425;56.136;40.360;2023-02-16T06:39:07;100440.22;;;-2.44;70.53
26487;BME280;14425;56.136;40.360;2023-02-16T06:41:32;100433.13;;;-3.48;67.49
26487;BME280;14425;56.136;40.360;2023-02-16T06:44:10;100447.38;;;-4.21;75.90
26487;BME280;14425;56.136;40.360;2023-02-16T06:46:42;100441.66;;;-3.30;76.54
26487;BME280;14425;56.136;40.360;2023-02-16T06:49:13;100440.97;;;-3.21;73.39
26487;BME280;14425;56.136;40.360;2023-02-16T06:51:40;100444.19;;;-3.80;72.62
26487;BME280;14425;56.136;40.360;2023-02-16T06:54:05;100438.19;;;-2.90;73.33
26487;BME280;14425;56.136;40.360;2023-02-16T06:56:31;100440.22;;;-3.53;70.20
26487;BME280;14425;56.136;40.360;2023-02-16T06:58:56;100440.22;;;-3.28;73.63
26487;BME280;14425;56.136;40.360;2023-02-16T07:01:22;100441.78;;;-3.62;74.43
26487;BME280;14425;56.136;40.360;2023-02-16T07:03:51;100440.13;;;-3.12;75.56
26487;BME280;14425;56.136;40.360;2023-02-16T07:06:18;100438.44;;;-2.54;69.52
26487;BME280;14425;56.136;40.360;2023-02-16T07:08:44;100425.44;;;-1.89;68.48
26487;BME280;14425;56.136;40.360;2023-02-16T07:11:10;100422.06;;;0.12;63.19
26487;BME280;14425;56.136;40.360;2023-02-16T07:13:36;100422.66;;;0.29;59.17
26487;BME280;14425;56.136;40.360;2023-02-16T07:16:03;100417.06;;;0.52;58.96
26487;BME280;14425;56.136;40.360;2023-02-16T07:18:28;100422.75;;;1.18;58.20
26487;BME280;14425;56.136;40.360;2023-02-16T07:20:54;100431.03;;;0.28;56.65
26487;BME280;14425;56.136;40.360;2023-02-16T07:23:19;100424.50;;;0.21;56.40
26487;BME280;14425;56.136;40.360;2023-02-16T07:25:45;100414.28;;;1.38;55.49
26487;BME280;14425;56.136;40.360;2023-02-16T07:28:12;100413.00;;;1.64;55.89
26487;BME280;14425;56.136;40.360;2023-02-16T07:30:37;100409.66;;;1.96;52.82
26487;BME280;14425;56.136;40.360;2023-02-16T07:33:03;100415.81;;;1.57;52.47
26487;BME280;14425;56.136;40.360;2023-02-16T07:35:28;100426.22;;;1.91;52.28
26487;BME280;14425;56.136;40.360;2023-02-16T07:37:54;100424.31;;;1.37;52.88
26487;BME280;14425;56.136;40.360;2023-02-16T07:40:20;100429.25;;;0.27;53.31
26487;BME280;14425;56.136;40.360;2023-02-16T07:42:45;100425.97;;;0.57;55.07
26487;BME280;14425;56.136;40.360;2023-02-16T07:45:11;100431.56;;;0.15;53.83
26487;BME280;14425;56.136;40.360;2023-02-16T07:47:36;100431.56;;;0.34;54.50
26487;BME280;14425;56.136;40.360;2023-02-16T07:50:02;100426.63;;;0.35;53.97
26487;BME280;14425;56.136;40.360;2023-02-16T07:52:29;100432.81;;;0.10;53.31
26487;BME280;14425;56.136;40.360;2023-02-16T07:54:58;100430.31;;;-0.37;53.47
26487;BME280;14425;56.136;40.360;2023-02-16T07:57:25;100431.41;;;-1.17;56.37
26487;BME280;14425;56.136;40.360;2023-02-16T07:59:51;100432.16;;;-1.09;57.19
26487;BME280;14425;56.136;40.360;2023-02-16T08:02:17;100421.88;;;-1.10;56.92
26487;BME280;14425;56.136;40.360;2023-02-16T08:04:44;100419.50;;;-2.24;60.06
26487;BME280;14425;56.136;40.360;2023-02-16T08:07:11;100421.34;;;-0.89;59.97
26487;BME280;14425;56.136;40.360;2023-02-16T08:09:38;100418.09;;;-1.42;59.17
26487;BME280;14425;56.136;40.360;2023-02-16T08:12:07;100430.91;;;-2.36;59.63
26487;BME280;14425;56.136;40.360;2023-02-16T08:14:32;100424.63;;;-1.35;60.92
26487;BME280;14425;56.136;40.360;2023-02-16T08:16:58;100419.44;;;-0.17;58.98
26487;BME280;14425;56.136;40.360;2023-02-16T08:19:23;100418.75;;;1.01;56.16
26487;BME280;14425;56.136;40.360;2023-02-16T08:21:49;100415.81;;;-0.29;54.23
26487;BME280;14425;56.136;40.360;2023-02-16T08:24:14;100416.47;;;-0.41;57.64
26487;BME280;14425;56.136;40.360;2023-02-16T08:26:41;100420.38;;;-1.08;56.79
26487;BME280;14425;56.136;40.360;2023-02-16T08:29:08;100405.28;;;0.92;56.36
26487;BME280;14425;56.136;40.360;2023-02-16T08:31:34;100396.56;;;2.76;54.11
26487;BME280;14425;56.136;40.360;2023-02-16T08:34:01;100406.84;;;2.13;50.38
26487;BME280;14425;56.136;40.360;2023-02-16T08:36:30;100399.00;;;1.69;51.53
26487;BME280;14425;56.136;40.360;2023-02-16T08:38:57;100404.47;;;1.94;51.79
26487;BME280;14425;56.136;40.360;2023-02-16T08:41:29;100410.59;;;2.49;49.23
26487;BME280;14425;56.136;40.360;2023-02-16T08:43:56;100412.94;;;0.73;51.17
26487;BME280;14425;56.136;40.360;2023-02-16T08:46:21;100418.69;;;-0.63;54.27
26487;BME280;14425;56.136;40.360;2023-02-16T08:48:47;100422.59;;;-0.66;54.91
26487;BME280;14425;56.136;40.360;2023-02-16T08:51:14;100418.72;;;-0.71;55.47
26487;BME280;14425;56.136;40.360;2023-02-16T08:53:40;100418.31;;;-0.02;54.93
26487;BME280;14425;56.136;40.360;2023-02-16T08:56:05;100417.94;;;-0.62;54.39
26487;BME280;14425;56.136;40.360;2023-02-16T08:58:35;100425.31;;;-1.19;56.83
26487;BME280;14425;56.136;40.360;2023-02-16T09:01:05;100420.22;;;-0.73;56.21
26487;BME280;14425;56.136;40.360;2023-02-16T09:03:33;100424.09;;;-1.59;56.41
26487;BME280;14425;56.136;40.360;2023-02-16T09:06:01;100422.84;;;-1.27;58.07
26487;BME280;14425;56.136;40.360;2023-02-16T09:08:28;100426.66;;;-1.14;57.22
26487;BME280;14425;56.136;40.360;2023-02-16T09:10:54;100418.94;;;-0.51;56.17
26487;BME280;14425;56.136;40.360;2023-02-16T09:13:20;100423.69;;;-1.09;56.56
26487;BME280;14425;56.136;40.360;2023-02-16T09:15:46;100416.97;;;-0.26;57.36
26487;BME280;14425;56.136;40.360;2023-02-16T09:18:13;100417.97;;;-0.43;56.11
26487;BME280;14425;56.136;40.360;2023-02-16T09:20:40;100414.47;;;-1.18;56.73
26487;BME280;14425;56.136;40.360;2023-02-16T09:23:07;100411.63;;;-0.29;58.67
26487;BME280;14425;56.136;40.360;2023-02-16T09:25:34;100410.47;;;0.06;55.06
26487;BME280;14425;56.136;40.360;2023-02-16T09:28:00;100416.91;;;-0.17;56.60
26487;BME280;14425;56.136;40.360;2023-02-16T09:30:26;100412.66;;;0.60;54.55
26487;BME280;14425;56.136;40.360;2023-02-16T09:32:52;100405.38;;;0.44;52.97
26487;BME280;14425;56.136;40.360;2023-02-16T09:35:18;100408.31;;;0.88;53.06
26487;BME280;14425;56.136;40.360;2023-02-16T09:37:44;100411.47;;;1.97;51.14
26487;BME280;14425;56.136;40.360;2023-02-16T09:40:12;100409.13;;;2.20;49.96
26487;BME280;14425;56.136;40.360;2023-02-16T09:45:10;100399.91;;;1.59;49.64
26487;BME280;14425;56.136;40.360;2023-02-16T09:47:40;100403.06;;;2.08;51.54
26487;BME280;14425;56.136;40.360;2023-02-16T09:50:22;100395.16;;;3.58;49.05
26487;BME280;14425;56.136;40.360;2023-02-16T09:53:06;100382.94;;;5.85;45.54
26487;BME280;14425;56.136;40.360;2023-02-16T09:56:17;100377.78;;;7.20;44.98
26487;BME280;14425;56.136;40.360;2023-02-16T09:58:56;100377.78;;;7.63;42.47
26487;BME280;14425;56.136;40.360;2023-02-16T10:04:48;100385.81;;;5.26;42.42
26487;BME280;14425;56.136;40.360;2023-02-16T10:07:38;100397.19;;;3.06;47.07
26487;BME280;14425;56.136;40.360;2023-02-16T10:10:06;100393.50;;;3.59;46.20
26487;BME280;14425;56.136;40.360;2023-02-16T10:12:37;100391.66;;;3.34;45.67
26487;BME280;14425;56.136;40.360;2023-02-16T10:15:16;100390.06;;;3.70;44.69
26487;BME280;14425;56.136;40.360;2023-02-16T10:17:46;100388.88;;;3.77;45.52
26487;BME280;14425;56.136;40.360;2023-02-16T10:20:20;100389.69;;;4.11;45.28
26487;BME280;14425;56.136;40.360;2023-02-16T10:23:00;100394.66;;;3.86;44.37
26487;BME280;14425;56.136;40.360;2023-02-16T10:25:41;100384.25;;;5.53;44.76
26487;BME280;14425;56.136;40.360;2023-02-16T10:31:02;100370.66;;;6.06;43.01
26487;BME280;14425;56.136;40.360;2023-02-16T10:33:33;100374.94;;;5.67;42.46
26487;BME280;14425;56.136;40.360;2023-02-16T10:36:13;100371.84;;;4.84;43.04
26487;BME280;14425;56.136;40.360;2023-02-16T10:39:08;100371.22;;;5.11;42.38
26487;BME280;14425;56.136;40.360;2023-02-16T10:41:56;100369.41;;;6.53;41.99
26487;BME280;14425;56.136;40.360;2023-02-16T10:44:36;100369.44;;;6.81;41.47
26487;BME280;14425;56.136;40.360;2023-02-16T10:47:05;100362.00;;;7.57;39.73
26487;BME280;14425;56.136;40.360;2023-02-16T10:49:38;100357.66;;;9.10;40.13
26487;BME280;14425;56.136;40.360;2023-02-16T10:52:06;100347.06;;;9.03;38.29
26487;BME280;14425;56.136;40.360;2023-02-16T10:54:32;100352.41;;;8.75;35.62
26487;BME280;14425;56.136;40.360;2023-02-16T10:57:05;100358.22;;;8.10;37.27
26487;BME280;14425;56.136;40.360;2023-02-16T10:59:44;100355.31;;;8.65;38.42
26487;BME280;14425;56.136;40.360;2023-02-16T11:02:27;100351.16;;;8.52;36.80
26487;BME280;14425;56.136;40.360;2023-02-16T11:04:56;100347.13;;;8.26;37.63
26487;BME280;14425;56.136;40.360;2023-02-16T11:07:27;100351.91;;;7.02;40.64
26487;BME280;14425;56.136;40.360;2023-02-16T11:09:55;100352.59;;;6.71;39.18
26487;BME280;14425;56.136;40.360;2023-02-16T11:12:28;100366.66;;;4.70;40.80
26487;BME280;14425;56.136;40.360;2023-02-16T11:17:31;100374.88;;;3.26;47.01
26487;BME280;14425;56.136;40.360;2023-02-16T11:20:25;100363.63;;;4.03;49.35
26487;BME280;14425;56.136;40.360;2023-02-16T11:22:53;100359.66;;;6.07;44.02
26487;BME280;14425;56.136;40.360;2023-02-16T11:25:36;100362.81;;;5.64;45.68
26487;BME280;14425;56.136;40.360;2023-02-16T11:28:02;100363.69;;;6.03;43.61
26487;BME280;14425;56.136;40.360;2023-02-16T11:30:32;100350.06;;;5.91;42.39
26487;BME280;14425;56.136;40.360;2023-02-16T11:33:00;100363.78;;;3.25;45.15
26487;BME280;14425;56.136;40.360;2023-02-16T11:35:26;100372.94;;;1.31;46.80
26487;BME280;14425;56.136;40.360;2023-02-16T11:37:54;100377.66;;;1.67;47.02
26487;BME280;14425;56.136;40.360;2023-02-16T11:40:25;100375.88;;;1.76;46.92
26487;BME280;14425;56.136;40.360;2023-02-16T11:42:55;100369.16;;;4.10;49.01
26487;BME280;14425;56.136;40.360;2023-02-16T11:45:25;100363.28;;;4.11;45.82
26487;BME280;14425;56.136;40.360;2023-02-16T11:48:02;100364.31;;;5.10;44.84
26487;BME280;14425;56.136;40.360;2023-02-16T11:50:35;100356.03;;;5.65;44.58
26487;BME280;14425;56.136;40.360;2023-02-16T11:55:37;100377.13;;;3.67;46.09
26487;BME280;14425;56.136;40.360;2023-02-16T11:58:23;100376.50;;;3.47;45.97
26487;BME280;14425;56.136;40.360;2023-02-16T12:06:45;100372.13;;;3.01;46.90
26487;BME280;14425;56.136;40.360;2023-02-16T12:12:36;100376.81;;;4.57;44.71
26487;BME280;14425;56.136;40.360;2023-02-16T12:18:29;100367.94;;;4.52;43.03
26487;BME280;14425;56.136;40.360;2023-02-16T12:45:34;100378.59;;;2.53;47.28
26487;BME280;14425;56.136;40.360;2023-02-16T12:50:36;100382.38;;;1.21;48.81
26487;BME280;14425;56.136;40.360;2023-02-16T12:55:50;100381.00;;;2.29;48.03
26487;BME280;14425;56.136;40.360;2023-02-16T12:58:21;100381.50;;;1.41;45.94
26487;BME280;14425;56.136;40.360;2023-02-16T13:00:50;100389.88;;;1.30;49.67
26487;BME280;14425;56.136;40.360;2023-02-16T13:03:22;100383.16;;;1.51;49.46
26487;BME280;14425;56.136;40.360;2023-02-16T13:05:58;100397.78;;;2.27;48.51
26487;BME280;14425;56.136;40.360;2023-02-16T13:08:28;100383.63;;;2.31;48.17
26487;BME280;14425;56.136;40.360;2023-02-16T13:13:31;100397.63;;;0.71;47.90
26487;BME280;14425;56.136;40.360;2023-02-16T13:16:14;100400.47;;;0.36;51.85
26487;BME280;14425;56.136;40.360;2023-02-16T13:18:42;100394.81;;;1.28;49.83
26487;BME280;14425;56.136;40.360;2023-02-16T13:21:18;100399.50;;;1.44;48.56
26487;BME280;14425;56.136;40.360;2023-02-16T13:43:32;100403.00;;;-0.12;51.68
26487;BME280;14425;56.136;40.360;2023-02-16T13:46:03;100402.69;;;0.42;50.65
26487;BME280;14425;56.136;40.360;2023-02-16T13:48:37;100409.38;;;-0.07;51.76
26487;BME280;14425;56.136;40.360;2023-02-16T13:51:10;100401.84;;;-0.34;53.11
26487;BME280;14425;56.136;40.360;2023-02-16T13:53:40;100405.31;;;0.14;51.56
26487;BME280;14425;56.136;40.360;2023-02-16T13:58:49;100399.22;;;0.61;50.83
26487;BME280;14425;56.136;40.360;2023-02-16T14:03:52;100403.81;;;0.35;51.72
26487;BME280;14425;56.136;40.360;2023-02-16T14:06:35;100400.69;;;0.00;51.79
26487;BME280;14425;56.136;40.360;2023-02-16T14:22:27;100412.50;;;-1.65;54.33
26487;BME280;14425;56.136;40.360;2023-02-16T14:24:56;100419.28;;;-2.43;58.66
26487;BME280;14425;56.136;40.360;2023-02-16T14:36:05;100418.16;;;-1.86;66.76
26487;BME280;14425;56.136;40.360;2023-02-16T14:41:03;100407.78;;;0.71;88.84
26487;BME280;14425;56.136;40.360;2023-02-16T14:43:45;100415.81;;;-0.57;61.89
26487;BME280;14425;56.136;40.360;2023-02-16T14:57:17;100426.25;;;-2.58;74.68
26487;BME280;14425;56.136;40.360;2023-02-16T14:59:55;100430.69;;;-3.31;69.27
26487;BME280;14425;56.136;40.360;2023-02-16T15:02:26;100430.38;;;-3.99;70.54
26487;BME280;14425;56.136;40.360;2023-02-16T15:04:53;100430.75;;;-3.72;74.41
26487;BME280;14425;56.136;40.360;2023-02-16T15:07:19;100415.94;;;-2.77;87.77
26487;BME280;14425;56.136;40.360;2023-02-16T15:09:48;100420.03;;;-3.28;72.78
26487;BME280;14425;56.136;40.360;2023-02-16T15:12:25;100421.88;;;-3.68;72.97
26487;BME280;14425;56.136;40.360;2023-02-16T15:15:00;100428.91;;;-3.81;74.64
26487;BME280;14425;56.136;40.360;2023-02-16T15:17:44;100420.56;;;-3.15;74.32
26487;BME280;14425;56.136;40.360;2023-02-16T15:20:32;100428.28;;;-3.63;74.42
26487;BME280;14425;56.136;40.360;2023-02-16T15:23:02;100428.38;;;-3.21;85.01
26487;BME280;14425;56.136;40.360;2023-02-16T15:25:33;100424.78;;;-3.97;73.22
26487;BME280;14425;56.136;40.360;2023-02-16T15:30:38;100421.53;;;-3.55;78.67
26487;BME280;14425;56.136;40.360;2023-02-16T15:36:18;100423.19;;;-3.47;87.31
26487;BME280;14425;56.136;40.360;2023-02-16T15:38:56;100423.81;;;-4.06;80.87